Time;durP1;ratioP1;P1;durP2;ratioP2;P2;SDS_P1;SDS_P2;PMS_P1;PMS_P2;Temp;Humidity;BMP_temperature;BMP_pressure;BME280_temperature;BME280_humidity;BME280_pressure;Samples;Min_cycle;Max_cycle;Signal;HPM_P1;HPM_P2
2023/06/08 00:02:23;;;;;;;18.92;9.55;;;11.80;99.90;;;;;;5091287;27;20122;-81
2023/06/08 00:04:52;;;;;;;22.55;9.80;;;11.90;99.90;;;;;;5086328;27;20063;-81
2023/06/08 00:07:24;;;;;;;22.40;10.15;;;11.80;99.90;;;;;;5102989;27;20150;-80
2023/06/08 00:09:51;;;;;;;17.17;9.90;;;11.80;99.90;;;;;;5109123;27;20070;-80
2023/06/08 00:12:16;;;;;;;19.50;10.25;;;11.90;99.90;;;;;;5100322;27;20445;-81
2023/06/08 00:14:42;;;;;;;20.67;10.10;;;11.80;99.90;;;;;;5127124;27;20035;-80
2023/06/08 00:17:08;;;;;;;17.92;10.35;;;11.80;99.90;;;;;;5074312;27;20043;-80
2023/06/08 00:19:38;;;;;;;23.27;10.88;;;11.90;99.90;;;;;;5122774;27;20095;-80
2023/06/08 00:22:08;;;;;;;19.65;10.73;;;11.90;99.90;;;;;;5105854;27;20511;-80
2023/06/08 00:24:37;;;;;;;19.23;11.55;;;11.90;99.90;;;;;;5104956;27;20468;-81
2023/06/08 00:27:06;;;;;;;26.55;11.15;;;11.80;99.90;;;;;;5109449;27;20072;-80
2023/06/08 00:29:33;;;;;;;20.50;10.88;;;11.80;99.90;;;;;;5092023;27;20081;-80
2023/06/08 00:31:58;;;;;;;20.80;11.23;;;11.80;99.90;;;;;;5089420;27;20113;-81
2023/06/08 00:34:27;;;;;;;19.75;10.45;;;11.90;99.90;;;;;;5094571;27;20130;-81
2023/06/08 00:36:53;;;;;;;24.20;11.35;;;11.80;99.90;;;;;;5097454;27;20043;-80
2023/06/08 00:39:22;;;;;;;21.77;11.90;;;11.80;99.90;;;;;;5120790;27;20389;-80
2023/06/08 00:41:48;;;;;;;19.80;11.63;;;11.90;99.90;;;;;;5090908;27;20070;-80
2023/06/08 00:44:14;;;;;;;20.55;11.07;;;11.80;99.90;;;;;;5088564;27;20490;-81
2023/06/08 00:46:40;;;;;;;20.63;10.52;;;11.80;99.90;;;;;;5090818;27;20031;-80
2023/06/08 00:49:11;;;;;;;19.55;10.65;;;11.80;99.90;;;;;;5085598;27;20039;-80
2023/06/08 00:51:41;;;;;;;22.13;10.27;;;11.80;99.90;;;;;;5087984;27;20035;-80
2023/06/08 00:54:12;;;;;;;19.27;10.15;;;11.90;99.90;;;;;;5124573;27;20263;-81
2023/06/08 00:56:38;;;;;;;21.98;9.82;;;11.70;99.90;;;;;;5084029;27;20484;-80
2023/06/08 00:59:05;;;;;;;20.00;10.27;;;11.70;99.90;;;;;;5091571;27;20035;-80
2023/06/08 01:01:31;;;;;;;18.48;10.27;;;11.70;99.90;;;;;;5104130;27;20047;-81
2023/06/08 01:04:05;;;;;;;19.33;10.35;;;11.80;99.90;;;;;;5132180;27;20043;-80
2023/06/08 01:06:45;;;;;;;20.48;10.85;;;11.80;99.90;;;;;;5118584;27;20138;-80
2023/06/08 01:09:36;;;;;;;21.48;12.32;;;11.70;99.90;;;;;;5093550;27;20053;-80
2023/06/08 01:12:16;;;;;;;23.20;13.45;;;11.70;99.90;;;;;;5095445;27;20055;-80
2023/06/08 01:14:45;;;;;;;22.70;13.38;;;11.80;99.90;;;;;;5121156;27;20054;-80
2023/06/08 01:17:18;;;;;;;21.15;14.13;;;11.90;99.90;;;;;;5105210;27;20401;-80
2023/06/08 01:19:47;;;;;;;23.38;12.85;;;11.80;99.90;;;;;;5133170;27;20435;-81
2023/06/08 01:22:20;;;;;;;22.42;12.32;;;11.80;99.90;;;;;;5100002;27;20371;-80
2023/06/08 01:24:49;;;;;;;25.17;11.75;;;11.80;99.90;;;;;;5123300;27;20031;-80
2023/06/08 01:27:17;;;;;;;22.83;13.68;;;11.80;99.90;;;;;;5111929;27;20069;-80
2023/06/08 01:29:45;;;;;;;28.80;15.02;;;11.80;99.90;;;;;;5122041;27;20469;-80
2023/06/08 01:32:11;;;;;;;21.55;15.00;;;11.80;99.90;;;;;;5126194;27;20031;-81
2023/06/08 01:34:39;;;;;;;24.33;15.02;;;11.70;99.90;;;;;;5091920;27;20229;-81
2023/06/08 01:37:12;;;;;;;28.35;14.90;;;11.80;99.90;;;;;;5103410;27;20055;-80
2023/06/08 01:39:48;;;;;;;28.90;14.27;;;11.80;99.90;;;;;;5119480;27;20450;-80
2023/06/08 01:42:18;;;;;;;24.85;13.93;;;11.80;99.90;;;;;;5108536;27;20050;-80
2023/06/08 01:44:57;;;;;;;24.63;12.93;;;11.80;99.90;;;;;;5086462;27;20035;-80
2023/06/08 01:47:35;;;;;;;19.42;12.52;;;11.70;99.90;;;;;;5093399;27;20335;-80
2023/06/08 01:50:04;;;;;;;27.77;13.15;;;11.80;99.90;;;;;;5100795;27;20086;-80
2023/06/08 01:52:30;;;;;;;25.33;12.20;;;11.80;99.90;;;;;;5097565;27;20031;-81
2023/06/08 01:54:55;;;;;;;18.83;11.27;;;11.80;99.90;;;;;;5103431;27;20948;-80
2023/06/08 01:57:21;;;;;;;19.67;12.07;;;11.70;99.90;;;;;;5126168;27;20058;-80
2023/06/08 01:59:47;;;;;;;20.15;12.15;;;11.70;99.90;;;;;;5090091;27;20134;-81
2023/06/08 02:02:13;;;;;;;21.67;11.77;;;11.80;99.90;;;;;;5089690;27;20537;-80
2023/06/08 02:04:42;;;;;;;24.55;11.45;;;11.80;99.90;;;;;;5116685;27;20465;-80
2023/06/08 02:07:08;;;;;;;20.00;10.88;;;11.80;99.90;;;;;;5089017;27;20050;-80
2023/06/08 02:09:33;;;;;;;19.48;11.15;;;11.80;99.90;;;;;;5122552;27;20038;-81
2023/06/08 02:12:07;;;;;;;23.13;12.43;;;11.80;99.90;;;;;;5102748;27;20039;-80
2023/06/08 02:14:33;;;;;;;26.83;13.00;;;11.80;99.90;;;;;;5141207;27;20038;-80
2023/06/08 02:17:03;;;;;;;21.17;13.35;;;11.90;99.90;;;;;;5081082;27;20039;-80
2023/06/08 02:19:30;;;;;;;25.20;13.43;;;11.90;99.90;;;;;;5088990;27;20602;-81
2023/06/08 02:21:57;;;;;;;23.52;13.40;;;11.90;99.90;;;;;;5120462;27;20046;-80
2023/06/08 02:24:23;;;;;;;23.27;11.90;;;11.90;99.90;;;;;;5093360;27;20043;-80
2023/06/08 02:26:52;;;;;;;21.55;12.70;;;11.90;99.90;;;;;;5088275;27;20590;-80
2023/06/08 02:29:18;;;;;;;20.98;12.82;;;11.90;99.90;;;;;;5109620;27;20405;-80
2023/06/08 02:31:44;;;;;;;25.13;13.32;;;11.90;99.90;;;;;;5111090;27;20065;-80
2023/06/08 02:34:10;;;;;;;24.17;13.10;;;11.90;99.90;;;;;;5099229;27;20051;-80
2023/06/08 02:36:36;;;;;;;29.17;12.85;;;12.00;99.90;;;;;;5097256;27;20034;-80
2023/06/08 02:39:06;;;;;;;20.27;13.38;;;12.10;99.90;;;;;;5118235;27;20089;-81
2023/06/08 02:41:31;;;;;;;26.45;13.80;;;12.10;99.90;;;;;;5124639;27;20051;-80
2023/06/08 02:43:57;;;;;;;23.88;12.70;;;12.00;99.90;;;;;;5079011;28;20043;-80
2023/06/08 02:46:22;;;;;;;26.45;13.40;;;12.10;99.90;;;;;;5095614;27;20321;-79
2023/06/08 02:48:49;;;;;;;25.02;13.10;;;12.10;99.90;;;;;;5088171;27;20087;-80
2023/06/08 02:51:16;;;;;;;19.55;13.40;;;12.20;99.90;;;;;;5095374;27;20074;-80
2023/06/08 02:53:42;;;;;;;25.48;13.07;;;12.20;99.90;;;;;;5117634;27;20080;-80
2023/06/08 02:56:08;;;;;;;24.40;13.80;;;12.20;99.90;;;;;;5084136;28;20043;-80
2023/06/08 02:58:33;;;;;;;25.50;13.27;;;12.10;99.90;;;;;;5087601;27;20189;-80
2023/06/08 03:01:00;;;;;;;20.80;12.05;;;12.10;99.90;;;;;;5114040;27;20044;-80
2023/06/08 03:03:27;;;;;;;24.83;11.23;;;12.20;99.90;;;;;;5112627;27;20466;-80
2023/06/08 03:05:58;;;;;;;23.55;11.38;;;12.20;99.90;;;;;;5086987;28;20491;-80
2023/06/08 03:08:28;;;;;;;23.17;11.18;;;12.30;99.90;;;;;;5102427;27;20039;-80
2023/06/08 03:10:54;;;;;;;19.50;11.15;;;12.30;99.90;;;;;;5107143;27;20482;-80
2023/06/08 03:13:21;;;;;;;18.70;10.52;;;12.30;99.90;;;;;;5089923;27;20043;-80
2023/06/08 03:15:47;;;;;;;21.23;11.63;;;12.30;99.90;;;;;;5086745;28;20126;-80
2023/06/08 03:18:13;;;;;;;20.65;10.95;;;12.30;99.90;;;;;;5103686;27;20073;-80
2023/06/08 03:20:43;;;;;;;20.75;11.13;;;12.40;99.90;;;;;;5086200;28;20467;-80
2023/06/08 03:23:09;;;;;;;23.30;10.77;;;12.40;99.90;;;;;;5109842;27;20231;-80
2023/06/08 03:25:38;;;;;;;22.52;11.30;;;12.30;99.90;;;;;;5116505;27;20214;-80
2023/06/08 03:28:04;;;;;;;18.17;10.10;;;12.30;99.90;;;;;;5083626;27;20054;-80
2023/06/08 03:30:30;;;;;;;21.65;10.68;;;12.30;99.90;;;;;;5119819;27;20401;-80
2023/06/08 03:32:59;;;;;;;19.40;10.15;;;12.40;99.90;;;;;;5120986;27;20043;-80
2023/06/08 03:35:25;;;;;;;19.73;10.43;;;12.40;99.90;;;;;;5105850;27;20251;-80
2023/06/08 03:37:51;;;;;;;21.23;10.32;;;12.40;99.90;;;;;;5117092;27;20790;-81
2023/06/08 03:40:16;;;;;;;16.48;10.25;;;12.40;99.90;;;;;;5142809;27;20486;-80
2023/06/08 03:42:42;;;;;;;22.23;10.75;;;12.40;99.90;;;;;;5097035;27;20507;-80
2023/06/08 03:45:08;;;;;;;17.75;10.20;;;12.40;99.90;;;;;;5102338;27;20039;-80
2023/06/08 03:47:33;;;;;;;17.35;11.20;;;12.50;99.90;;;;;;5088336;27;20031;-81
2023/06/08 03:50:02;;;;;;;17.70;10.45;;;12.30;99.90;;;;;;5123952;27;20031;-80
2023/06/08 03:52:28;;;;;;;26.65;11.10;;;12.40;99.90;;;;;;5084831;27;20038;-80
2023/06/08 03:54:54;;;;;;;22.50;10.88;;;12.50;99.90;;;;;;5094010;27;20027;-80
2023/06/08 03:57:19;;;;;;;18.08;10.43;;;12.50;99.90;;;;;;5139467;27;20057;-80
2023/06/08 03:59:45;;;;;;;19.83;10.30;;;12.50;99.90;;;;;;5120707;27;20039;-80
2023/06/08 04:02:11;;;;;;;20.58;10.10;;;12.50;99.90;;;;;;5107255;27;20035;-80
2023/06/08 04:04:39;;;;;;;20.83;10.20;;;12.50;99.90;;;;;;5090561;27;20393;-80
2023/06/08 04:07:07;;;;;;;19.08;9.07;;;12.50;99.90;;;;;;5091490;27;20035;-80
2023/06/08 04:09:33;;;;;;;18.48;9.25;;;12.50;99.90;;;;;;5090164;27;20194;-80
2023/06/08 04:11:58;;;;;;;17.92;8.65;;;12.50;99.90;;;;;;5085140;27;20084;-80
2023/06/08 04:14:24;;;;;;;19.10;9.30;;;12.60;99.90;;;;;;5091052;27;20121;-80
2023/06/08 04:16:50;;;;;;;19.67;9.52;;;12.60;99.90;;;;;;5139457;27;20164;-80
2023/06/08 04:19:15;;;;;;;18.23;9.05;;;12.60;99.90;;;;;;5103832;27;20063;-80
2023/06/08 04:21:42;;;;;;;19.30;8.55;;;12.60;99.90;;;;;;5100241;27;20039;-80
2023/06/08 04:24:08;;;;;;;17.20;9.00;;;12.60;99.90;;;;;;5089296;27;20108;-80
2023/06/08 04:26:34;;;;;;;17.27;8.70;;;12.60;99.90;;;;;;5086395;27;20740;-80
2023/06/08 04:29:00;;;;;;;16.00;8.80;;;12.60;99.90;;;;;;5118337;27;20035;-80
2023/06/08 04:31:26;;;;;;;17.77;8.65;;;12.70;99.90;;;;;;5119669;27;20134;-80
2023/06/08 04:33:52;;;;;;;19.30;9.25;;;12.70;99.90;;;;;;5117614;27;20134;-80
2023/06/08 04:36:17;;;;;;;17.77;8.48;;;12.80;99.90;;;;;;5087796;27;20027;-80
2023/06/08 04:38:43;;;;;;;18.52;8.65;;;12.80;99.90;;;;;;5089973;27;20070;-80
2023/06/08 04:41:11;;;;;;;24.92;9.35;;;12.80;99.90;;;;;;5123636;27;20073;-80
2023/06/08 04:43:37;;;;;;;17.17;8.55;;;12.70;99.90;;;;;;5120946;27;20172;-80
2023/06/08 04:46:04;;;;;;;18.75;8.20;;;12.80;99.90;;;;;;5087407;27;20676;-81
2023/06/08 04:48:33;;;;;;;19.10;8.35;;;12.90;99.90;;;;;;5090189;27;20497;-80
2023/06/08 04:51:01;;;;;;;13.95;7.55;;;12.90;99.90;;;;;;5092371;27;20032;-80
2023/06/08 04:53:34;;;;;;;15.98;8.82;;;12.90;99.90;;;;;;5087946;27;20047;-80
2023/06/08 04:56:01;;;;;;;20.13;9.13;;;13.00;99.90;;;;;;5135895;27;20120;-80
2023/06/08 04:58:28;;;;;;;13.98;8.15;;;13.00;99.90;;;;;;5093230;27;20434;-80
2023/06/08 05:00:54;;;;;;;21.35;8.40;;;13.00;99.90;;;;;;5080876;27;20050;-80
2023/06/08 05:03:21;;;;;;;18.23;8.82;;;12.70;99.90;;;;;;5088360;27;20039;-80
2023/06/08 05:05:47;;;;;;;18.38;8.90;;;12.90;99.90;;;;;;5079323;27;20557;-80
2023/06/08 05:08:13;;;;;;;17.58;8.40;;;13.00;99.90;;;;;;5084338;27;20073;-80
2023/06/08 05:10:39;;;;;;;19.05;9.30;;;13.00;99.90;;;;;;5108743;27;20470;-81
2023/06/08 05:13:05;;;;;;;19.88;9.20;;;13.00;99.90;;;;;;5110839;27;20067;-80
2023/06/08 05:15:31;;;;;;;18.38;10.15;;;13.20;99.90;;;;;;5123592;27;20043;-80
2023/06/08 05:17:58;;;;;;;16.63;8.40;;;13.10;99.90;;;;;;5089715;27;20041;-80
2023/06/08 05:20:26;;;;;;;16.60;8.73;;;13.20;99.90;;;;;;5113088;27;20143;-80
2023/06/08 05:22:52;;;;;;;20.80;8.13;;;13.20;99.90;;;;;;5124144;27;20514;-80
2023/06/08 05:25:18;;;;;;;18.02;8.57;;;13.00;99.90;;;;;;5081766;27;20039;-80
2023/06/08 05:27:44;;;;;;;24.00;8.75;;;13.00;99.90;;;;;;5109127;27;20500;-80
2023/06/08 05:30:10;;;;;;;15.32;7.82;;;13.00;99.90;;;;;;5081030;27;20038;-81
2023/06/08 05:32:35;;;;;;;22.17;7.50;;;13.10;99.90;;;;;;5114705;27;20052;-80
2023/06/08 05:35:03;;;;;;;20.33;8.02;;;13.10;99.90;;;;;;5085123;27;20092;-80
2023/06/08 05:37:29;;;;;;;18.67;8.20;;;13.50;99.90;;;;;;5120772;27;20077;-80
2023/06/08 05:39:54;;;;;;;15.70;8.00;;;13.40;99.90;;;;;;5103909;27;20134;-81
2023/06/08 05:42:20;;;;;;;17.55;8.32;;;13.20;99.90;;;;;;5102511;27;20066;-81
2023/06/08 05:44:46;;;;;;;17.42;7.13;;;13.30;99.90;;;;;;5097663;27;20451;-80
2023/06/08 05:47:12;;;;;;;17.60;7.75;;;13.50;99.90;;;;;;5105914;27;20733;-80
2023/06/08 05:49:37;;;;;;;19.45;7.72;;;13.90;99.90;;;;;;5083748;27;20046;-80
2023/06/08 05:52:03;;;;;;;12.77;6.95;;;13.90;99.90;;;;;;5134400;27;20540;-80
2023/06/08 05:54:29;;;;;;;14.30;7.47;;;14.00;99.90;;;;;;5084929;27;20062;-80
2023/06/08 05:56:55;;;;;;;18.55;8.70;;;13.80;99.90;;;;;;5085853;28;20093;-79
2023/06/08 05:59:21;;;;;;;17.38;6.63;;;14.00;99.90;;;;;;5137360;27;20256;-80
2023/06/08 06:01:47;;;;;;;19.05;6.55;;;14.20;99.90;;;;;;5106804;27;20343;-80
2023/06/08 06:04:13;;;;;;;12.95;6.00;;;14.10;99.90;;;;;;5125024;27;20058;-80
2023/06/08 06:06:39;;;;;;;18.05;6.88;;;14.00;99.90;;;;;;5085904;27;20044;-80
2023/06/08 06:09:04;;;;;;;11.43;6.40;;;13.90;99.90;;;;;;5116769;27;20419;-80
2023/06/08 06:11:30;;;;;;;14.00;6.40;;;14.20;99.90;;;;;;5123094;27;20486;-80
2023/06/08 06:13:57;;;;;;;15.48;6.07;;;14.20;99.90;;;;;;5131080;27;20058;-81
2023/06/08 06:16:26;;;;;;;14.25;5.90;;;14.50;99.90;;;;;;5096375;27;20034;-80
2023/06/08 06:18:52;;;;;;;13.30;7.03;;;14.60;99.90;;;;;;5086610;28;20120;-81
2023/06/08 06:21:20;;;;;;;15.10;6.82;;;14.40;99.90;;;;;;5113421;27;20051;-80
2023/06/08 06:23:46;;;;;;;11.13;5.75;;;14.40;99.90;;;;;;5090676;27;20378;-80
2023/06/08 06:26:12;;;;;;;14.15;6.15;;;14.00;99.90;;;;;;5096275;27;20045;-81
2023/06/08 06:28:38;;;;;;;13.98;6.90;;;13.90;99.90;;;;;;5118433;27;20028;-81
2023/06/08 06:31:05;;;;;;;17.10;7.35;;;14.10;99.90;;;;;;5119267;27;20398;-81
2023/06/08 06:33:30;;;;;;;19.60;6.63;;;14.10;99.90;;;;;;5092907;27;20065;-80
2023/06/08 06:35:56;;;;;;;14.07;6.63;;;14.50;99.90;;;;;;5139978;27;20486;-80
2023/06/08 06:38:22;;;;;;;17.60;7.07;;;14.80;99.90;;;;;;5136372;27;20070;-80
2023/06/08 06:40:50;;;;;;;15.45;7.30;;;14.70;99.90;;;;;;5120228;27;20054;-80
2023/06/08 06:43:17;;;;;;;14.13;6.78;;;14.60;99.90;;;;;;5093416;27;20047;-81
2023/06/08 06:45:43;;;;;;;14.45;6.45;;;14.50;99.90;;;;;;5106871;27;20075;-81
2023/06/08 06:48:09;;;;;;;16.58;6.60;;;14.90;99.90;;;;;;5125297;27;20031;-81
2023/06/08 06:50:35;;;;;;;15.48;6.63;;;15.00;99.90;;;;;;5081064;27;20031;-81
2023/06/08 06:53:00;;;;;;;12.82;5.88;;;14.80;99.90;;;;;;5112274;27;20122;-80
2023/06/08 06:55:26;;;;;;;16.30;6.93;;;14.90;99.90;;;;;;5110257;27;20507;-81
2023/06/08 06:57:55;;;;;;;17.25;6.50;;;14.70;99.90;;;;;;5095162;27;20135;-81
2023/06/08 07:00:22;;;;;;;15.02;7.05;;;14.80;99.90;;;;;;5092593;27;20145;-80
2023/06/08 07:02:48;;;;;;;16.92;7.15;;;14.60;99.90;;;;;;5096139;27;20039;-81
2023/06/08 07:05:14;;;;;;;18.92;7.13;;;14.60;99.90;;;;;;5117812;27;20130;-80
2023/06/08 07:07:40;;;;;;;13.63;6.80;;;14.70;99.90;;;;;;5123083;27;20114;-81
2023/06/08 07:10:06;;;;;;;13.95;6.10;;;14.90;99.90;;;;;;5121581;27;20711;-81
2023/06/08 07:12:32;;;;;;;12.60;6.25;;;15.20;99.90;;;;;;5094957;27;20099;-80
2023/06/08 07:14:57;;;;;;;19.52;6.40;;;15.30;99.90;;;;;;5121992;27;20082;-80
2023/06/08 07:17:23;;;;;;;16.50;6.72;;;15.40;99.90;;;;;;5128779;27;20516;-81
2023/06/08 07:19:51;;;;;;;16.73;6.47;;;15.50;99.90;;;;;;5124187;27;20046;-80
2023/06/08 07:22:17;;;;;;;15.20;5.88;;;15.70;99.90;;;;;;5093270;27;20118;-81
2023/06/08 07:24:42;;;;;;;16.58;6.22;;;15.50;99.90;;;;;;5110293;27;20844;-81
2023/06/08 07:27:08;;;;;;;15.52;5.57;;;15.40;99.90;;;;;;5112039;27;20134;-81
2023/06/08 07:29:34;;;;;;;13.93;6.13;;;15.30;99.90;;;;;;5094019;27;20034;-80
2023/06/08 07:31:59;;;;;;;15.38;5.90;;;15.40;99.90;;;;;;5111258;27;20038;-81
2023/06/08 07:34:26;;;;;;;13.00;5.30;;;15.50;99.90;;;;;;5087755;27;20520;-80
2023/06/08 07:36:51;;;;;;;13.73;5.90;;;15.60;99.90;;;;;;5091207;27;20572;-81
2023/06/08 07:39:17;;;;;;;14.95;6.03;;;15.90;99.90;;;;;;5106260;27;20050;-80
2023/06/08 07:41:46;;;;;;;16.17;5.63;;;15.90;99.90;;;;;;5114535;27;20031;-81
2023/06/08 07:44:11;;;;;;;13.40;5.35;;;15.80;99.90;;;;;;5115129;27;20548;-81
2023/06/08 07:46:37;;;;;;;12.73;5.05;;;15.70;99.90;;;;;;5118634;27;20042;-80
2023/06/08 07:49:03;;;;;;;10.02;5.47;;;15.80;99.90;;;;;;5110427;27;20041;-80
2023/06/08 07:51:29;;;;;;;12.05;4.65;;;16.20;99.90;;;;;;5115187;27;20050;-80
2023/06/08 07:53:55;;;;;;;12.32;5.03;;;16.30;99.90;;;;;;5121797;27;20397;-81
2023/06/08 07:56:21;;;;;;;12.48;5.60;;;16.00;99.90;;;;;;5087484;27;20095;-80
2023/06/08 07:58:47;;;;;;;12.02;5.38;;;16.30;99.90;;;;;;5081188;27;20049;-81
2023/06/08 08:01:13;;;;;;;13.48;5.70;;;16.50;99.90;;;;;;5089968;27;20129;-81
2023/06/08 08:03:38;;;;;;;13.65;5.97;;;16.40;99.90;;;;;;5105728;27;20675;-80
2023/06/08 08:06:05;;;;;;;14.73;5.93;;;16.40;99.90;;;;;;5136281;27;20413;-80
2023/06/08 08:08:31;;;;;;;16.98;5.40;;;16.10;99.90;;;;;;5102630;27;20035;-81
2023/06/08 08:10:56;;;;;;;12.02;5.45;;;16.40;99.90;;;;;;5112301;27;20109;-80
2023/06/08 08:13:22;;;;;;;15.70;6.05;;;16.60;99.90;;;;;;5116811;27;20039;-81
2023/06/08 08:15:50;;;;;;;13.75;5.35;;;16.60;99.90;;;;;;5114844;27;20046;-81
2023/06/08 08:18:19;;;;;;;12.63;5.30;;;16.50;99.90;;;;;;5100617;27;20042;-81
2023/06/08 08:20:45;;;;;;;17.17;6.07;;;16.30;99.90;;;;;;5121296;27;20035;-80
2023/06/08 08:23:10;;;;;;;11.77;5.43;;;16.50;99.90;;;;;;5108538;27;20070;-81
2023/06/08 08:25:36;;;;;;;11.07;5.07;;;16.80;99.90;;;;;;5123240;27;20046;-80
2023/06/08 08:28:02;;;;;;;15.60;5.30;;;17.10;99.90;;;;;;5113147;27;20042;-80
2023/06/08 08:30:28;;;;;;;12.02;5.88;;;16.90;99.90;;;;;;5108369;27;20621;-80
2023/06/08 08:32:53;;;;;;;13.40;5.25;;;16.90;99.90;;;;;;5122291;27;20039;-80
2023/06/08 08:35:28;;;;;;;10.07;5.28;;;17.00;99.90;;;;;;5084897;27;20201;-80
2023/06/08 08:37:54;;;;;;;17.23;5.78;;;17.40;99.90;;;;;;5109026;27;20506;-80
2023/06/08 08:40:19;;;;;;;14.30;6.30;;;17.80;99.90;;;;;;5092196;27;20064;-81
2023/06/08 08:42:51;;;;;;;13.63;5.43;;;17.30;99.90;;;;;;5119645;27;20321;-80
2023/06/08 08:45:21;;;;;;;15.68;5.95;;;17.20;99.90;;;;;;5088467;27;20046;-80
2023/06/08 08:47:50;;;;;;;13.48;5.68;;;17.10;99.90;;;;;;5138642;27;20149;-81
2023/06/08 08:50:17;;;;;;;12.10;5.70;;;17.20;99.90;;;;;;5086077;27;20114;-80
2023/06/08 08:52:48;;;;;;;13.93;5.63;;;17.60;99.90;;;;;;5140185;27;20462;-81
2023/06/08 08:55:13;;;;;;;14.63;6.30;;;17.60;99.90;;;;;;5089221;27;20032;-81
2023/06/08 08:57:41;;;;;;;18.25;6.18;;;17.90;99.90;;;;;;5107010;27;20040;-81
2023/06/08 09:00:10;;;;;;;13.70;5.72;;;18.20;99.90;;;;;;5119751;27;20731;-80
2023/06/08 09:02:36;;;;;;;14.38;6.05;;;18.60;99.90;;;;;;5135712;27;20040;-81
2023/06/08 09:05:05;;;;;;;15.82;5.28;;;18.20;99.90;;;;;;5109949;27;20548;-80
2023/06/08 09:07:31;;;;;;;13.90;5.50;;;18.40;99.90;;;;;;5108069;27;20039;-81
2023/06/08 09:10:19;;;;;;;9.98;5.45;;;18.80;99.90;;;;;;5092545;27;20517;-80
2023/06/08 09:12:47;;;;;;;11.43;5.88;;;18.90;99.90;;;;;;5090496;27;20039;-80
2023/06/08 09:15:16;;;;;;;13.10;6.32;;;18.70;99.90;;;;;;5108553;27;20069;-81
2023/06/08 09:17:44;;;;;;;15.18;5.38;;;19.00;99.90;;;;;;5084382;27;20074;-80
2023/06/08 09:20:11;;;;;;;12.07;5.13;;;18.30;99.90;;;;;;5105005;27;20502;-80
2023/06/08 09:22:41;;;;;;;15.32;5.70;;;19.00;99.90;;;;;;5082867;27;20039;-80
2023/06/08 09:25:07;;;;;;;18.95;6.55;;;18.90;99.90;;;;;;5118177;27;20039;-81
2023/06/08 09:27:37;;;;;;;12.20;5.93;;;18.90;99.90;;;;;;5125275;27;20241;-80
2023/06/08 09:30:22;;;;;;;10.48;5.43;;;18.80;99.90;;;;;;5083910;28;20730;-81
2023/06/08 09:32:48;;;;;;;13.10;5.35;;;19.00;99.90;;;;;;5120815;27;20039;-80
2023/06/08 09:35:22;;;;;;;12.15;5.45;;;18.80;99.90;;;;;;5114959;27;20117;-80
2023/06/08 09:37:49;;;;;;;10.67;5.03;;;19.40;99.90;;;;;;5115401;27;20107;-80
2023/06/08 09:40:20;;;;;;;10.88;4.78;;;19.60;99.90;;;;;;5095270;27;20276;-81
2023/06/08 09:42:50;;;;;;;16.08;5.43;;;19.80;99.90;;;;;;5142869;27;20069;-81
2023/06/08 09:45:20;;;;;;;11.93;5.05;;;19.80;99.90;;;;;;5085233;27;20567;-80
2023/06/08 09:47:49;;;;;;;14.02;5.40;;;19.70;99.90;;;;;;5119706;27;20172;-80
2023/06/08 09:50:18;;;;;;;11.60;5.47;;;19.10;99.90;;;;;;5106718;27;20122;-80
2023/06/08 09:52:47;;;;;;;13.40;4.90;;;19.60;99.90;;;;;;5086048;27;20347;-80
2023/06/08 09:55:15;;;;;;;15.95;5.47;;;19.80;99.90;;;;;;5109319;27;20030;-80
2023/06/08 09:57:41;;;;;;;11.98;5.22;;;20.00;99.90;;;;;;5113538;27;20026;-80
2023/06/08 10:03:01;;;;;;;11.90;4.75;;;20.30;99.90;;;;;;5110101;27;20049;-81
2023/06/08 10:05:33;;;;;;;12.60;4.78;;;20.60;99.90;;;;;;5087666;27;20680;-81
2023/06/08 10:08:04;;;;;;;10.18;4.88;;;20.40;99.90;;;;;;5085781;27;20493;-80
2023/06/08 10:10:35;;;;;;;14.48;4.80;;;20.30;99.90;;;;;;5100641;27;20050;-81
2023/06/08 10:13:01;;;;;;;11.05;4.63;;;20.20;99.90;;;;;;5111116;27;20036;-80
2023/06/08 10:15:32;;;;;;;12.45;5.25;;;20.20;67.30;;;;;;5108758;27;20046;-80
2023/06/08 10:18:02;;;;;;;11.38;4.50;;;20.70;99.90;;;;;;5110302;27;20179;-80
2023/06/08 10:20:29;;;;;;;12.98;4.68;;;20.40;30.00;;;;;;5089140;27;20051;-80
2023/06/08 10:23:00;;;;;;;10.63;4.53;;;20.50;99.90;;;;;;5137740;27;20046;-81
2023/06/08 10:25:30;;;;;;;9.95;4.93;;;20.00;99.90;;;;;;5088927;27;20099;-80
2023/06/08 10:28:05;;;;;;;12.73;4.93;;;19.50;99.90;;;;;;5091858;27;20110;-80
2023/06/08 10:30:41;;;;;;;12.93;4.57;;;20.00;99.90;;;;;;5110134;27;20039;-80
2023/06/08 10:33:16;;;;;;;9.63;4.25;;;20.50;99.90;;;;;;5092143;27;20067;-81
2023/06/08 10:35:43;;;;;;;14.88;4.03;;;21.00;99.90;;;;;;5100623;27;20157;-81
2023/06/08 10:38:16;;;;;;;8.57;4.20;;;21.00;99.90;;;;;;5103091;27;20428;-80
2023/06/08 10:40:50;;;;;;;10.13;4.45;;;20.30;1.00;;;;;;5103644;27;20186;-81
2023/06/08 10:43:16;;;;;;;7.40;4.55;;;20.40;99.90;;;;;;5086734;27;20047;-81
2023/06/08 10:45:48;;;;;;;8.35;4.57;;;20.20;85.40;;;;;;5097981;27;20047;-80
2023/06/08 10:48:16;;;;;;;9.15;4.22;;;20.20;99.90;;;;;;5085098;27;20521;-81
2023/06/08 10:50:43;;;;;;;9.88;4.65;;;20.60;99.90;;;;;;5096793;27;20031;-80
2023/06/08 10:53:08;;;;;;;8.57;4.32;;;21.40;99.90;;;;;;5105318;27;20137;-80
2023/06/08 10:55:34;;;;;;;7.95;4.38;;;20.40;1.00;;;;;;5115916;27;20139;-81
2023/06/08 10:58:20;;;;;;;11.23;4.80;;;21.00;1.00;;;;;;5098965;27;20034;-80
2023/06/08 11:00:49;;;;;;;14.20;4.50;;;21.00;1.00;;;;;;5141133;27;20340;-80
2023/06/08 11:03:17;;;;;;;10.40;4.38;;;20.60;1.00;;;;;;5088665;27;20171;-81
2023/06/08 11:05:45;;;;;;;10.68;4.22;;;20.40;99.90;;;;;;5074167;27;20035;-80
2023/06/08 11:08:11;;;;;;;11.35;4.90;;;20.80;31.00;;;;;;5082775;27;20095;-81
2023/06/08 11:10:44;;;;;;;12.02;4.50;;;21.00;1.00;;;;;;5099576;27;20048;-80
2023/06/08 11:13:16;;;;;;;11.82;4.20;;;21.50;99.90;;;;;;5084266;27;20047;-81
2023/06/08 11:15:45;;;;;;;9.88;4.32;;;21.70;99.90;;;;;;5083904;27;20526;-81
2023/06/08 11:18:11;;;;;;;10.40;4.80;;;21.40;1.00;;;;;;5088863;27;20509;-81
2023/06/08 11:20:39;;;;;;;10.65;4.60;;;21.30;99.90;;;;;;5085367;27;20129;-81
2023/06/08 11:23:12;;;;;;;12.23;4.78;;;20.70;99.90;;;;;;5091323;27;20348;-80
2023/06/08 11:25:38;;;;;;;10.18;4.35;;;20.80;99.90;;;;;;5124560;27;20435;-81
2023/06/08 11:28:07;;;;;;;10.88;5.13;;;21.60;99.90;;;;;;5110068;27;20046;-80
2023/06/08 11:30:37;;;;;;;10.73;4.35;;;21.40;99.90;;;;;;5090193;27;20419;-81
2023/06/08 11:33:08;;;;;;;9.10;3.85;;;21.40;99.90;;;;;;5102163;27;20058;-81
2023/06/08 11:35:34;;;;;;;9.07;4.53;;;21.50;99.90;;;;;;5113831;27;20284;-81
2023/06/08 11:38:03;;;;;;;10.75;4.47;;;20.60;8.00;;;;;;5095347;27;20048;-81
2023/06/08 11:40:30;;;;;;;10.38;4.47;;;21.20;99.90;;;;;;5100557;27;20374;-81
2023/06/08 11:42:57;;;;;;;8.95;4.47;;;21.80;99.90;;;;;;5110663;27;20125;-81
2023/06/08 11:45:23;;;;;;;9.63;4.60;;;21.70;99.90;;;;;;5089716;27;20031;-81
2023/06/08 11:47:54;;;;;;;9.75;4.45;;;21.50;99.90;;;;;;5116167;27;20114;-81
2023/06/08 11:50:20;;;;;;;11.98;4.47;;;21.60;16.60;;;;;;5086253;27;20630;-80
2023/06/08 11:52:46;;;;;;;8.02;4.40;;;21.40;1.00;;;;;;5092975;27;20026;-81
2023/06/08 11:55:17;;;;;;;10.23;4.05;;;21.60;99.90;;;;;;5105617;27;20035;-81
2023/06/08 11:57:46;;;;;;;9.60;4.70;;;21.40;99.90;;;;;;5084557;27;20473;-80
2023/06/08 12:00:27;;;;;;;10.07;4.75;;;21.80;99.90;;;;;;5091151;27;20146;-81
2023/06/08 12:02:56;;;;;;;8.90;4.28;;;21.40;1.00;;;;;;5127091;27;20043;-81
2023/06/08 12:05:25;;;;;;;11.35;4.75;;;22.30;50.00;;;;;;5109904;27;20565;-81
2023/06/08 12:07:55;;;;;;;11.38;4.30;;;23.00;99.90;;;;;;5100892;27;20185;-80
2023/06/08 12:10:21;;;;;;;9.27;4.82;;;23.10;99.90;;;;;;5090426;27;20104;-81
2023/06/08 12:12:48;;;;;;;10.15;4.47;;;23.00;24.20;;;;;;5087809;27;20031;-81
2023/06/08 12:15:18;;;;;;;9.98;4.47;;;23.30;99.90;;;;;;5091342;27;20122;-81
2023/06/08 12:17:47;;;;;;;10.52;5.03;;;23.30;99.90;;;;;;5103308;27;20031;-80
2023/06/08 12:20:17;;;;;;;13.93;4.90;;;23.50;1.00;;;;;;5094132;27;20124;-81
2023/06/08 12:22:43;;;;;;;9.32;4.60;;;23.00;62.00;;;;;;5112150;27;20283;-81
2023/06/08 12:25:09;;;;;;;13.02;4.63;;;22.30;67.40;;;;;;5105771;27;20038;-81
2023/06/08 12:27:39;;;;;;;11.68;4.63;;;22.00;99.90;;;;;;5103507;27;20039;-81
2023/06/08 12:30:07;;;;;;;9.20;3.90;;;23.20;99.90;;;;;;5122172;27;20103;-80
2023/06/08 12:32:32;;;;;;;10.52;4.40;;;23.20;99.90;;;;;;5099202;27;20035;-81
2023/06/08 12:35:01;;;;;;;9.18;4.60;;;22.90;50.70;;;;;;5111843;27;20046;-81
2023/06/08 12:37:27;;;;;;;9.93;4.45;;;23.30;99.90;;;;;;5091265;27;20035;-81
2023/06/08 12:39:56;;;;;;;9.20;4.00;;;22.40;99.90;;;;;;5121131;27;20058;-81
2023/06/08 12:42:21;;;;;;;9.55;4.05;;;22.00;99.90;;;;;;5090414;27;20035;-81